Terminal Aerodrome Forecast
Issued by NWS

Home | Current Version | Previous Version | Text Only | Print | Product List | Glossary On
Versions: 1 2 3 4 5 6 7 8 9 10 11 12 13
943
FTAK31 PAJN 271219 AAB
TAFAJN
TAF AMD
PAJN 271219Z 2712/2812 11013G19KT 6SM -RA BR BKN030 OVC050
      TEMPO 2712/2714 4SM RA BR
     FM271700 12014G25KT P6SM VCSH BKN045
     FM272300 10016G27KT P6SM -SHRA OVC045
     FM280300 11014G20KT 6SM -RA OVC025
     FM280800 10012KT P6SM -RA OVC025=

USA.gov is the U.S. government's official web portal to all federal, state and local government web resources and services.